Decoded Metar for KHST (HOMESTEAD in FL, USA) (IATA:HST) | Meteo·Mobile Aviation Weather
aviador You're here:

KHST Decoded Metar

HOMESTEAD in FL, USA
Report Time2018-11-19 08:56:00
UTC Time2018-11-19 09:07:20
Flight Rules vfr VFR
WindCalm
Visibility9999 m
Phenomena:N/A
Clouds:N/A
Expected CloudBase > 400 ft AGL from Temp-Dew spread
CeilingNone
Temp22°C (ISA +7)
Dew Point21°C (94% RH)
QNH1017 hPa
Density Alt1,017 ft
Elevation7 ft
Report Wrong Elevation
Raw Report
KHST 190856Z AUTO 00000KT 10SM CLR 22/21 A3002 RMK AO2 SLP169
T02200208 56006 FZRANO VISNO RWY24 $=

Extra information for KHST:More info

Metar Taf Metar & Taf Last 4 Metars F.Rules Stats Wind Profile Meteogram Temp Stats Airport Information Weather charts Add Link Nearby VenuesMetar ALERT Operation Metar Decoded Social comments

AIRNAV info for KHST